Time;durP1;ratioP1;P1;durP2;ratioP2;P2;SDS_P1;SDS_P2;PMS_P1;PMS_P2;Temp;Humidity;BMP_temperature;BMP_pressure;BME280_temperature;BME280_humidity;BME280_pressure;Samples;Min_cycle;Max_cycle;Signal;HPM_P1;HPM_P2
2021/06/01 00:02:18;;;;;;;9.40;6.63;;;;;;;9.49;100.00;94429.44;10452660;28;20076;-78
2021/06/01 00:07:18;;;;;;;10.80;5.30;;;;;;;9.51;100.00;94424.63;10451446;28;20048;-79
2021/06/01 00:12:19;;;;;;;10.47;7.03;;;;;;;9.67;100.00;94420.81;10452914;28;20911;-79
2021/06/01 00:17:19;;;;;;;9.25;5.05;;;;;;;9.70;100.00;94416.78;10456017;28;20499;-79
2021/06/01 00:22:20;;;;;;;7.00;5.15;;;;;;;9.81;100.00;94398.72;10461431;28;20482;-79
2021/06/01 00:27:20;;;;;;;4.95;3.88;;;;;;;9.95;100.00;94386.31;10461265;28;20076;-79
2021/06/01 00:32:21;;;;;;;5.10;3.60;;;;;;;9.89;100.00;94382.84;10459684;28;20036;-79
2021/06/01 00:37:22;;;;;;;3.53;3.23;;;;;;;9.58;100.00;94388.34;10460971;28;20299;-79
2021/06/01 00:42:22;;;;;;;3.80;3.40;;;;;;;9.59;100.00;94386.50;10460587;28;20029;-79
2021/06/01 00:47:22;;;;;;;4.67;4.13;;;;;;;9.51;100.00;94384.38;10460621;28;20047;-79
2021/06/01 00:52:23;;;;;;;4.43;3.57;;;;;;;9.50;100.00;94383.59;10460463;28;20460;-80
2021/06/01 00:57:23;;;;;;;6.03;4.10;;;;;;;9.50;100.00;94380.09;10460276;28;20028;-79
2021/06/01 01:02:23;;;;;;;4.73;4.23;;;;;;;9.63;100.00;94384.88;10460064;28;20071;-80
2021/06/01 01:07:45;;;;;;;7.05;3.90;;;;;;;9.79;100.00;94384.78;10459449;28;20112;-80
2021/06/01 01:12:59;;;;;;;5.63;4.25;;;;;;;9.79;100.00;94392.84;10459660;28;20025;-79
2021/06/01 01:18:07;;;;;;;4.90;3.95;;;;;;;9.85;100.00;94384.50;10457316;28;20025;-72
2021/06/01 01:23:16;;;;;;;5.03;4.20;;;;;;;9.88;100.00;94386.63;10449929;28;20400;-76
2021/06/01 01:28:26;;;;;;;7.53;5.25;;;;;;;9.90;100.00;94391.69;10450190;28;20103;-76
2021/06/01 01:33:39;;;;;;;6.70;5.32;;;;;;;10.03;100.00;94391.09;10451250;28;20492;-76
2021/06/01 01:38:42;;;;;;;9.93;6.05;;;;;;;10.18;100.00;94384.81;10447559;28;20090;-75
2021/06/01 01:43:47;;;;;;;7.18;5.68;;;;;;;10.19;100.00;94378.38;10446556;28;20028;-75
2021/06/01 01:49:04;;;;;;;8.20;5.95;;;;;;;10.03;100.00;94377.69;10451247;28;20526;-75
2021/06/01 01:54:17;;;;;;;8.15;6.00;;;;;;;9.92;100.00;94378.78;10449337;28;20067;-76
2021/06/01 01:59:21;;;;;;;7.93;5.90;;;;;;;9.83;100.00;94372.41;10447284;28;20037;-75
2021/06/01 02:04:25;;;;;;;9.18;6.35;;;;;;;9.85;100.00;94372.94;10446645;28;20040;-76
2021/06/01 02:09:26;;;;;;;8.88;6.18;;;;;;;9.95;100.00;94378.25;10445905;28;20053;-76
2021/06/01 02:14:27;;;;;;;8.55;5.78;;;;;;;9.98;100.00;94368.84;10447765;28;20108;-77
2021/06/01 02:19:27;;;;;;;8.43;5.57;;;;;;;10.11;100.00;94367.41;10447150;28;20033;-75
2021/06/01 02:24:33;;;;;;;6.57;5.45;;;;;;;10.24;100.00;94366.78;10447171;28;20098;-76
2021/06/01 02:29:43;;;;;;;6.38;4.63;;;;;;;10.32;100.00;94368.06;10446668;28;20028;-75
2021/06/01 02:34:45;;;;;;;6.97;5.40;;;;;;;10.42;100.00;94370.69;10446070;28;20102;-75
2021/06/01 02:39:47;;;;;;;8.07;5.82;;;;;;;10.39;100.00;94366.69;10443963;28;20024;-75
2021/06/01 02:44:47;;;;;;;6.68;5.18;;;;;;;10.28;100.00;94373.19;10445821;28;20032;-76
2021/06/01 02:49:49;;;;;;;8.35;6.30;;;;;;;10.09;100.00;94376.56;10447093;28;20029;-76
2021/06/01 02:54:50;;;;;;;5.90;3.90;;;;;;;9.89;100.00;94379.34;10445641;28;20480;-76
2021/06/01 02:59:50;;;;;;;7.57;4.70;;;;;;;9.81;100.00;94377.25;10445259;28;20025;-76
2021/06/01 03:04:52;;;;;;;5.63;4.20;;;;;;;9.84;100.00;94384.78;10446329;28;20033;-76
2021/06/01 03:09:52;;;;;;;5.05;4.18;;;;;;;9.65;100.00;94387.28;10444568;28;20036;-75
2021/06/01 03:14:53;;;;;;;6.47;3.83;;;;;;;9.68;100.00;94381.34;10445049;28;20503;-75
2021/06/01 03:19:53;;;;;;;6.45;4.40;;;;;;;9.81;100.00;94386.13;10444590;28;20094;-76
2021/06/01 03:24:53;;;;;;;9.80;5.57;;;;;;;9.82;100.00;94390.38;10447985;28;20041;-76
2021/06/01 03:29:54;;;;;;;6.03;4.73;;;;;;;9.48;100.00;94388.41;10448340;28;20051;-76
2021/06/01 03:34:54;;;;;;;9.07;5.80;;;;;;;9.30;100.00;94386.34;10446595;28;20078;-76
2021/06/01 03:39:54;;;;;;;8.63;6.43;;;;;;;9.20;100.00;94395.22;10448291;28;20037;-76
2021/06/01 03:44:55;;;;;;;9.18;5.80;;;;;;;9.15;100.00;94398.69;10447798;28;20029;-76
2021/06/01 03:49:57;;;;;;;8.50;5.57;;;;;;;9.16;100.00;94408.34;10446497;28;20025;-75
2021/06/01 03:54:57;;;;;;;8.27;5.55;;;;;;;9.00;100.00;94404.91;10445490;28;20028;-75
2021/06/01 03:59:58;;;;;;;7.83;5.63;;;;;;;8.75;100.00;94394.22;10446244;28;20465;-75
2021/06/01 04:04:58;;;;;;;8.60;5.88;;;;;;;8.68;100.00;94397.19;10446365;28;20280;-76
2021/06/01 04:09:59;;;;;;;6.70;4.97;;;;;;;8.80;100.00;94391.53;10446102;28;20813;-72
2021/06/01 04:15:00;;;;;;;6.63;5.30;;;;;;;8.84;100.00;94385.34;10444683;28;20712;-72
2021/06/01 04:20:01;;;;;;;7.63;4.35;;;;;;;9.02;100.00;94386.66;10444541;28;20040;-72
2021/06/01 04:25:03;;;;;;;6.95;5.03;;;;;;;8.99;100.00;94384.53;10440924;28;20049;-72
2021/06/01 04:30:06;;;;;;;7.38;5.50;;;;;;;8.90;100.00;94383.47;10440971;28;20427;-72
2021/06/01 04:35:07;;;;;;;7.55;5.78;;;;;;;8.90;100.00;94388.84;10440319;28;20131;-72
2021/06/01 04:40:14;;;;;;;6.75;4.90;;;;;;;8.87;100.00;94384.03;10440714;28;20036;-72
2021/06/01 04:45:15;;;;;;;7.43;5.60;;;;;;;8.90;100.00;94383.47;10440049;28;20033;-72
2021/06/01 04:50:16;;;;;;;9.85;5.85;;;;;;;8.91;100.00;94400.38;10440055;28;20472;-71
2021/06/01 04:55:17;;;;;;;7.75;5.60;;;;;;;9.14;100.00;94405.16;10440333;28;20044;-72
2021/06/01 05:00:17;;;;;;;6.03;4.57;;;;;;;9.03;100.00;94404.38;10439308;28;20025;-71
2021/06/01 05:05:18;;;;;;;11.00;6.28;;;;;;;9.02;100.00;94396.59;10445455;28;20032;-73
2021/06/01 05:10:19;;;;;;;7.70;5.32;;;;;;;8.82;100.00;94403.59;10445281;28;20047;-72
2021/06/01 05:15:19;;;;;;;7.80;5.13;;;;;;;8.87;100.00;94400.91;10447176;28;20039;-72
2021/06/01 05:20:19;;;;;;;8.10;5.15;;;;;;;9.08;100.00;94408.91;10447232;28;20033;-72
2021/06/01 05:25:20;;;;;;;12.30;5.50;;;;;;;9.32;100.00;94409.13;10446635;28;20059;-73
2021/06/01 05:30:28;;;;;;;8.48;5.80;;;;;;;9.18;100.00;94408.91;10446492;28;20061;-73
2021/06/01 05:35:31;;;;;;;;;;;;;;;9.33;100.00;94401.88;10447177;28;20067;-73
2021/06/01 05:40:33;;;;;;;5.88;4.50;;;;;;;9.52;100.00;94405.56;10445692;28;19920;-78
2021/06/01 05:45:33;;;;;;;9.00;4.47;;;;;;;9.64;100.00;94391.03;10446241;28;20033;-73
2021/06/01 05:50:35;;;;;;;7.22;4.60;;;;;;;9.88;100.00;94383.13;10446368;28;20032;-73
2021/06/01 05:55:36;;;;;;;7.03;4.78;;;;;;;10.31;100.00;94386.09;10445630;28;20029;-73
2021/06/01 06:00:37;;;;;;;5.13;4.00;;;;;;;10.62;100.00;94375.13;10444115;28;20456;-73
2021/06/01 06:05:37;;;;;;;5.90;3.87;;;;;;;10.52;100.00;94367.94;10444365;28;20037;-71
2021/06/01 06:10:38;;;;;;;9.27;4.93;;;;;;;10.44;100.00;94365.88;10444215;28;21089;-72
2021/06/01 06:15:40;;;;;;;8.55;4.68;;;;;;;10.76;100.00;94373.38;10442964;28;20025;-72
2021/06/01 06:20:40;;;;;;;4.25;2.97;;;;;;;10.79;100.00;94366.63;10444536;28;20029;-72
2021/06/01 06:25:41;;;;;;;5.20;3.88;;;;;;;11.15;100.00;94363.59;10446784;28;20049;-72
2021/06/01 06:30:41;;;;;;;5.32;3.25;;;;;;;10.94;100.00;94365.69;10447664;28;20041;-72
2021/06/01 06:35:41;;;;;;;4.40;3.40;;;;;;;11.01;100.00;94357.25;10446013;28;20024;-72
2021/06/01 06:40:44;;;;;;;4.78;3.25;;;;;;;11.47;100.00;94372.91;10446963;28;20311;-72
2021/06/01 06:45:47;;;;;;;4.07;2.67;;;;;;;12.04;100.00;94367.63;10446290;28;20025;-72
2021/06/01 06:50:47;;;;;;;9.45;3.38;;;;;;;12.02;100.00;94369.81;10446493;28;20150;-72
2021/06/01 06:55:47;;;;;;;4.90;2.80;;;;;;;13.19;100.00;94362.00;10446313;28;20400;-72
2021/06/01 07:00:48;;;;;;;13.03;3.77;;;;;;;12.90;100.00;94377.31;10445562;28;20523;-72
2021/06/01 07:05:49;;;;;;;5.30;2.78;;;;;;;12.80;100.00;94374.81;10445286;28;20021;-72
2021/06/01 07:10:49;;;;;;;8.82;2.92;;;;;;;13.72;100.00;94380.41;10445749;28;20040;-73
2021/06/01 07:15:52;;;;;;;6.80;3.33;;;;;;;13.25;100.00;94366.19;10444419;28;20067;-73
2021/06/01 07:20:54;;;;;;;8.73;3.85;;;;;;;14.19;100.00;94364.81;10445323;28;20049;-72
2021/06/01 07:25:54;;;;;;;4.50;2.33;;;;;;;14.60;100.00;94354.94;10442629;28;20052;-72
2021/06/01 07:30:55;;;;;;;3.07;1.57;;;;;;;16.58;100.00;94355.47;10443543;28;20037;-73
2021/06/01 07:35:55;;;;;;;3.38;2.00;;;;;;;16.07;100.00;94349.69;10443332;28;20175;-73
2021/06/01 07:40:56;;;;;;;6.63;2.13;;;;;;;14.78;100.00;94350.47;10443431;28;20586;-73
2021/06/01 07:45:57;;;;;;;7.95;3.35;;;;;;;14.74;100.00;94376.56;10442523;28;20339;-73
2021/06/01 07:50:57;;;;;;;7.97;3.20;;;;;;;17.25;100.00;94373.06;10442442;28;20036;-73
2021/06/01 07:55:58;;;;;;;5.05;2.65;;;;;;;18.73;89.48;94367.13;10442795;28;20731;-73
2021/06/01 08:00:58;;;;;;;3.10;2.43;;;;;;;16.62;90.49;94367.28;10442336;28;20551;-73
2021/06/01 08:05:58;;;;;;;5.73;3.73;;;;;;;16.26;100.00;94373.03;10442732;28;20035;-73
2021/06/01 08:10:59;;;;;;;9.05;3.38;;;;;;;16.47;100.00;94365.84;10442733;28;20032;-73
2021/06/01 08:16:01;;;;;;;5.40;3.70;;;;;;;14.42;100.00;94385.69;10442348;28;20071;-73
2021/06/01 08:21:07;;;;;;;9.27;4.68;;;;;;;13.57;100.00;94384.22;10442563;28;20334;-73
2021/06/01 08:26:07;;;;;;;7.57;4.53;;;;;;;13.41;100.00;94389.13;10442275;28;20821;-73
2021/06/01 08:31:08;;;;;;;9.13;6.07;;;;;;;14.04;100.00;94397.59;10441781;28;20021;-73
2021/06/01 08:36:08;;;;;;;12.52;6.75;;;;;;;15.09;100.00;94392.22;10442603;28;20651;-73
2021/06/01 08:41:13;;;;;;;9.77;6.23;;;;;;;15.58;100.00;94378.72;10448212;28;20475;-73
2021/06/01 08:46:14;;;;;;;6.20;4.35;;;;;;;17.93;100.00;94374.25;10449836;28;20090;-73
2021/06/01 08:51:20;;;;;;;4.90;3.92;;;;;;;15.55;100.00;94361.19;10450192;28;20036;-73
2021/06/01 08:56:20;;;;;;;6.80;4.88;;;;;;;15.52;100.00;94373.44;10453058;28;20037;-73
2021/06/01 09:01:21;;;;;;;9.02;5.05;;;;;;;15.70;100.00;94373.53;10448396;28;20029;-73
2021/06/01 09:21:56;;;;;;;10.95;4.45;;;;;;;13.39;100.00;94385.13;10449435;28;20033;-73
2021/06/01 09:27:17;;;;;;;9.00;5.10;;;;;;;13.27;100.00;94382.88;10451752;28;20056;-73
2021/06/01 09:32:17;;;;;;;8.77;4.60;;;;;;;12.86;100.00;94378.22;10451664;28;20025;-73
2021/06/01 09:37:22;;;;;;;9.48;3.65;;;;;;;15.02;100.00;94369.06;10451535;28;20033;-72
2021/06/01 09:42:27;;;;;;;3.58;3.28;;;;;;;16.07;100.00;94371.38;10451315;28;20132;-73
2021/06/01 09:47:45;;;;;;;10.32;4.03;;;;;;;15.10;100.00;94375.66;10451053;28;20039;-71
2021/06/01 09:52:50;;;;;;;5.75;3.58;;;;;;;17.57;100.00;94367.38;10452425;28;20024;-71
2021/06/01 09:57:51;;;;;;;5.72;3.20;;;;;;;16.83;94.71;94363.88;10450787;28;20170;-71
2021/06/01 10:02:57;;;;;;;8.43;4.70;;;;;;;15.33;100.00;94381.81;10450146;28;20522;-72
2021/06/01 10:08:08;;;;;;;8.57;4.15;;;;;;;17.10;100.00;94367.38;10449997;28;20056;-72
2021/06/01 10:13:10;;;;;;;5.65;3.30;;;;;;;20.13;69.46;94343.75;10450043;28;20060;-72
2021/06/01 10:18:12;;;;;;;6.03;2.88;;;;;;;18.21;76.23;94354.72;10448198;28;20083;-72
2021/06/01 10:23:17;;;;;;;3.92;2.72;;;;;;;19.61;74.94;94356.91;10446803;28;20041;-72
2021/06/01 10:28:25;;;;;;;4.15;3.20;;;;;;;19.96;72.79;94342.84;10447243;28;20057;-72
2021/06/01 10:33:34;;;;;;;7.53;2.97;;;;;;;19.30;62.69;94346.56;10444422;28;20124;-72
2021/06/01 10:54:52;;;;;;;10.55;4.07;;;;;;;18.72;82.40;94346.47;10445604;28;20400;-72
2021/06/01 11:05:02;;;;;;;6.18;5.18;;;;;;;17.23;87.73;94369.09;10444525;28;20033;-72
2021/06/01 11:10:03;;;;;;;5.95;5.07;;;;;;;14.86;100.00;94374.09;10444352;28;20031;-72
2021/06/01 11:15:21;;;;;;;12.20;6.07;;;;;;;12.97;100.00;94376.94;10442605;28;20404;-72
2021/06/01 11:20:30;;;;;;;9.32;6.68;;;;;;;12.58;100.00;94373.53;10444158;28;20416;-72
2021/06/01 11:36:04;;;;;;;10.65;6.00;;;;;;;15.95;100.00;94357.66;10443563;28;20028;-72
2021/06/01 11:51:30;;;;;;;4.65;3.78;;;;;;;16.66;89.92;94387.22;10443028;28;20503;-72
2021/06/01 12:02:06;;;;;;;6.63;4.13;;;;;;;15.87;91.25;94384.41;10442592;28;20476;-72
2021/06/01 12:12:27;;;;;;;;;;;;;;;15.37;98.55;94387.41;10443911;28;20029;-72
2021/06/01 12:17:45;;;;;;;3.30;2.75;;;;;;;14.90;97.84;94387.00;10449373;28;19916;-74
2021/06/01 12:22:45;;;;;;;8.93;3.78;;;;;;;14.71;100.00;94401.53;10452060;28;20021;-72
2021/06/01 12:28:17;;;;;;;7.53;4.07;;;;;;;14.23;100.00;94402.84;10453798;28;20048;-72
2021/06/01 12:33:10;;;;;;;6.72;4.95;;;;;;;14.14;100.00;94410.88;10453920;28;20037;-71
2021/06/01 12:43:56;;;;;;;4.60;3.75;;;;;;;13.64;100.00;94418.94;10443021;28;20060;-72
2021/06/01 13:05:37;;;;;;;6.63;4.50;;;;;;;13.64;100.00;94419.72;10450759;28;20029;-71
2021/06/01 13:21:45;;;;;;;7.13;2.97;;;;;;;13.54;100.00;94455.03;10449820;28;20025;-71
2021/06/01 13:32:33;;;;;;;3.78;1.90;;;;;;;13.34;100.00;94456.97;10447660;28;20025;-71
2021/06/01 14:20:10;;;;;;;2.75;2.00;;;;;;;13.61;100.00;94482.44;10436734;28;20025;-72
2021/06/01 15:29:19;;;;;;;8.52;2.70;;;;;;;10.92;100.00;94515.72;10443272;28;20463;-71
2021/06/01 15:50:29;;;;;;;3.35;1.35;;;;;;;11.38;100.00;94525.31;10442071;28;20025;-72
2021/06/01 15:59:00;;;;;;;1.98;1.45;;;;;;;11.35;100.00;94518.59;10442609;28;20040;-73
2021/06/01 16:12:41;;;;;;;2.55;1.52;;;;;;;11.42;100.00;94531.72;10444980;28;20111;-73
2021/06/01 17:14:50;;;;;;;3.95;1.80;;;;;;;10.48;100.00;94589.91;10409617;28;20480;-72
2021/06/01 17:35:39;;;;;;;4.80;2.20;;;;;;;10.34;100.00;94607.66;10450898;28;20036;-73
2021/06/01 17:40:40;;;;;;;4.57;2.30;;;;;;;10.00;100.00;94622.53;10447942;28;20033;-72
2021/06/01 17:45:45;;;;;;;9.38;4.15;;;;;;;10.00;100.00;94632.47;10443587;28;20040;-72
2021/06/01 17:50:45;;;;;;;10.25;6.93;;;;;;;10.05;100.00;94635.94;10436228;28;20048;-72
2021/06/01 17:55:51;;;;;;;11.30;6.73;;;;;;;9.91;100.00;94640.28;10445513;28;20078;-71
2021/06/01 18:00:52;;;;;;;11.20;5.40;;;;;;;10.01;100.00;94650.97;10443921;28;20709;-72
2021/06/01 18:05:54;;;;;;;3.95;2.83;;;;;;;10.06;100.00;94659.03;10443109;28;20025;-72
2021/06/01 18:37:58;;;;;;;2.08;1.50;;;;;;;10.16;100.00;94678.88;10442154;28;20104;-73
2021/06/01 19:52:47;;;;;;;3.13;1.63;;;;;;;10.42;100.00;94753.03;10408534;28;20033;-76
2021/06/01 19:57:52;;;;;;;2.78;1.45;;;;;;;10.43;100.00;94746.53;10445615;28;20033;-77
2021/06/01 20:02:56;;;;;;;10.27;1.50;;;;;;;10.37;100.00;94749.53;10444728;28;20111;-77
2021/06/01 20:07:57;;;;;;;2.17;1.52;;;;;;;10.26;100.00;94754.06;10443652;28;20024;-76
2021/06/01 20:13:00;;;;;;;1.77;1.25;;;;;;;10.33;100.00;94757.28;10444152;28;20024;-76
2021/06/01 20:18:04;;;;;;;1.98;1.08;;;;;;;10.49;100.00;94758.09;10443990;28;20446;-76
2021/06/01 20:23:08;;;;;;;1.85;1.42;;;;;;;10.49;100.00;94771.53;10443517;28;20039;-76
2021/06/01 20:28:09;;;;;;;4.57;2.05;;;;;;;10.58;100.00;94775.28;10444110;28;20056;-76
2021/06/01 20:33:13;;;;;;;1.77;1.17;;;;;;;10.65;100.00;94766.94;10445732;28;20025;-76
2021/06/01 20:38:14;;;;;;;1.83;1.23;;;;;;;10.56;100.00;94766.69;10453934;28;20123;-76
2021/06/01 20:43:14;;;;;;;3.03;1.17;;;;;;;10.57;100.00;94775.56;10453098;28;20487;-76
2021/06/01 20:48:25;;;;;;;2.37;1.43;;;;;;;10.56;100.00;94780.13;10453337;28;20016;-76
2021/06/01 20:53:26;;;;;;;1.40;1.20;;;;;;;10.54;100.00;94786.84;10450382;28;20275;-75
2021/06/01 20:58:37;;;;;;;1.88;1.50;;;;;;;10.54;100.00;94795.72;10449483;28;20036;-75
2021/06/01 21:03:39;;;;;;;2.80;1.85;;;;;;;10.54;100.00;94797.59;10450079;28;20029;-75
2021/06/01 21:08:40;;;;;;;3.45;2.03;;;;;;;10.51;100.00;94796.25;10450954;28;20074;-76
2021/06/01 21:13:44;;;;;;;3.42;1.88;;;;;;;10.43;100.00;94804.88;10449891;28;20033;-76
2021/06/01 21:18:45;;;;;;;4.38;2.85;;;;;;;10.42;100.00;94811.31;10449707;28;20461;-77
2021/06/01 21:23:46;;;;;;;3.35;2.17;;;;;;;10.37;100.00;94816.69;10450335;28;20025;-77
2021/06/01 21:28:47;;;;;;;9.38;2.80;;;;;;;10.26;100.00;94813.16;10449731;28;20045;-77
2021/06/01 21:33:58;;;;;;;4.10;2.25;;;;;;;10.14;100.00;94813.44;10449888;28;20460;-75
2021/06/01 21:39:00;;;;;;;2.70;1.90;;;;;;;10.12;100.00;94826.31;10449705;28;20048;-77
2021/06/01 21:44:04;;;;;;;2.75;2.15;;;;;;;9.85;100.00;94826.56;10448811;28;20025;-77
2021/06/01 21:49:05;;;;;;;2.63;2.10;;;;;;;9.72;100.00;94823.31;10451806;28;20096;-77
2021/06/01 21:54:05;;;;;;;3.03;2.00;;;;;;;9.56;100.00;94824.38;10447337;28;20079;-76
2021/06/01 21:59:12;;;;;;;3.55;2.30;;;;;;;9.56;100.00;94835.09;10447645;28;20482;-76
2021/06/01 22:04:13;;;;;;;3.42;2.60;;;;;;;9.44;100.00;94837.19;10446382;28;20021;-77
2021/06/01 22:09:14;;;;;;;3.00;2.70;;;;;;;9.39;100.00;94837.97;10447706;28;20018;-74
2021/06/01 22:14:16;;;;;;;5.78;3.85;;;;;;;9.32;100.00;94835.56;10445995;28;20024;-77
2021/06/01 22:19:18;;;;;;;5.10;3.10;;;;;;;9.32;100.00;94834.72;10446076;28;20105;-77
2021/06/01 22:24:21;;;;;;;4.55;3.53;;;;;;;9.30;100.00;94843.03;10447272;28;20028;-77
2021/06/01 22:29:22;;;;;;;4.50;3.05;;;;;;;9.30;100.00;94847.59;10445624;28;20721;-77
2021/06/01 22:34:24;;;;;;;4.80;3.58;;;;;;;9.34;100.00;94841.44;10444682;28;20025;-77
2021/06/01 22:39:25;;;;;;;7.90;2.90;;;;;;;9.35;100.00;94844.91;10445245;28;20032;-77
2021/06/01 22:44:28;;;;;;;6.68;2.78;;;;;;;9.65;100.00;94844.22;10445874;28;20040;-77
2021/06/01 22:49:30;;;;;;;7.57;3.78;;;;;;;9.51;100.00;94827.81;10442846;28;20025;-77
2021/06/01 22:54:30;;;;;;;3.38;2.60;;;;;;;9.45;100.00;94833.44;10440256;28;20036;-77
2021/06/01 22:59:38;;;;;;;3.92;2.55;;;;;;;9.54;100.00;94831.84;10440884;28;20033;-77
2021/06/01 23:04:41;;;;;;;4.78;3.38;;;;;;;9.44;100.00;94831.84;10439791;28;20029;-75
2021/06/01 23:09:42;;;;;;;3.42;2.60;;;;;;;9.35;100.00;94832.34;10442670;28;20028;-77
2021/06/01 23:14:45;;;;;;;3.40;2.60;;;;;;;9.30;100.00;94837.66;10441432;28;20021;-77
2021/06/01 23:19:47;;;;;;;3.63;2.45;;;;;;;9.31;100.00;94825.09;10442655;28;20037;-76
2021/06/01 23:24:49;;;;;;;3.25;2.28;;;;;;;9.35;100.00;94828.84;10443085;28;20052;-77
2021/06/01 23:29:51;;;;;;;4.93;2.67;;;;;;;9.52;100.00;94828.63;10442344;28;20090;-77
2021/06/01 23:34:52;;;;;;;2.75;1.77;;;;;;;9.75;100.00;94822.78;10443155;28;20033;-77
2021/06/01 23:40:06;;;;;;;2.63;1.95;;;;;;;9.91;100.00;94820.94;10442826;28;20036;-77
2021/06/01 23:45:12;;;;;;;5.55;2.10;;;;;;;9.97;100.00;94821.75;10447803;28;20036;-77
2021/06/01 23:50:12;;;;;;;2.80;2.15;;;;;;;10.06;100.00;94828.22;10445660;28;20024;-77
2021/06/01 23:55:13;;;;;;;2.15;1.73;;;;;;;10.04;100.00;94830.34;10442884;28;20033;-77
